Time;durP1;ratioP1;P1;durP2;ratioP2;P2;SDS_P1;SDS_P2;PMS_P1;PMS_P2;Temp;Humidity;BMP_temperature;BMP_pressure;BME280_temperature;BME280_humidity;BME280_pressure;Samples;Min_cycle;Max_cycle;Signal;HPM_P1;HPM_P2
2022/01/28 00:01:05;;;;;;;24.33;4.03;;;;;;;;;;6126922;23;20304;-73
2022/01/28 00:03:33;;;;;;;20.83;3.13;;;;;;;;;;6126100;23;20005;-72
2022/01/28 00:05:59;;;;;;;19.20;4.00;;;;;;;;;;6161553;23;20099;-72
2022/01/28 00:08:25;;;;;;;21.73;3.67;;;;;;;;;;6162392;23;20008;-73
2022/01/28 00:10:52;;;;;;;24.73;3.97;;;;;;;;;;6161932;23;20379;-73
2022/01/28 00:13:22;;;;;;;27.55;4.95;;;;;;;;;;6162201;23;20059;-73
2022/01/28 00:21:07;;;;;;;26.35;3.58;;;;;;;;;;6162193;23;20006;-75
2022/01/28 00:39:47;;;;;;;25.25;2.95;;;;;;;;;;6162833;23;20021;-76
2022/01/28 00:42:13;;;;;;;24.92;3.97;;;;;;;;;;6125693;23;20009;-73
2022/01/28 00:44:39;;;;;;;33.15;4.95;;;;;;;;;;6162369;23;20001;-74
2022/01/28 00:47:05;;;;;;;19.83;3.08;;;;;;;;;;6136692;23;20355;-71
2022/01/28 00:49:31;;;;;;;27.98;3.60;;;;;;;;;;6162946;23;20060;-72
2022/01/28 00:51:57;;;;;;;21.73;3.20;;;;;;;;;;6162879;23;20316;-72
2022/01/28 00:54:23;;;;;;;17.73;3.13;;;;;;;;;;6162738;23;20007;-72
2022/01/28 00:56:50;;;;;;;22.23;4.20;;;;;;;;;;6162943;23;19994;-74
2022/01/28 00:59:17;;;;;;;18.30;2.63;;;;;;;;;;6163550;23;20001;-75
2022/01/28 01:01:43;;;;;;;17.23;2.10;;;;;;;;;;6127022;23;20080;-75
2022/01/28 01:04:09;;;;;;;15.52;2.80;;;;;;;;;;6162335;23;20081;-78
2022/01/28 01:06:35;;;;;;;15.82;3.22;;;;;;;;;;6162728;23;20068;-74
2022/01/28 01:09:01;;;;;;;10.65;1.80;;;;;;;;;;6162884;23;20371;-74
2022/01/28 01:11:28;;;;;;;16.30;2.17;;;;;;;;;;6162214;23;20056;-74
2022/01/28 01:13:54;;;;;;;14.98;2.20;;;;;;;;;;6162603;23;20323;-75
2022/01/28 01:16:29;;;;;;;24.48;2.38;;;;;;;;;;6161978;23;20012;-75
2022/01/28 01:21:29;;;;;;;17.95;3.28;;;;;;;;;;6162910;23;20032;-76
2022/01/28 01:23:57;;;;;;;27.90;2.55;;;;;;;;;;6162025;23;20025;-75
2022/01/28 01:26:31;;;;;;;24.20;3.05;;;;;;;;;;6162311;23;20006;-74
2022/01/28 01:28:58;;;;;;;17.48;2.95;;;;;;;;;;6162289;23;20025;-75
2022/01/28 01:31:24;;;;;;;15.57;3.58;;;;;;;;;;6161606;23;20004;-77
2022/01/28 01:36:16;;;;;;;21.55;3.67;;;;;;;;;;6162136;23;20431;-75
2022/01/28 01:38:43;;;;;;;22.27;3.05;;;;;;;;;;6162170;23;20002;-73
2022/01/28 01:41:17;;;;;;;19.92;2.97;;;;;;;;;;6162292;23;20033;-73
2022/01/28 01:44:00;;;;;;;18.90;2.70;;;;;;;;;;6162231;23;20025;-73
2022/01/28 01:52:05;;;;;;;18.27;3.78;;;;;;;;;;6161867;23;20020;-73
2022/01/28 01:54:36;;;;;;;22.00;4.00;;;;;;;;;;6162883;23;20406;-72
2022/01/28 01:57:02;;;;;;;23.10;4.05;;;;;;;;;;6161952;23;20315;-72
2022/01/28 01:59:28;;;;;;;15.52;2.70;;;;;;;;;;6161553;23;20060;-72
2022/01/28 02:46:12;;;;;;;32.13;3.33;;;;;;;;;;6214942;23;20071;-73
2022/01/28 02:48:41;;;;;;;31.40;4.15;;;;;;;;;;6224394;23;20078;-73
2022/01/28 02:51:16;;;;;;;29.13;4.28;;;;;;;;;;6224607;23;19997;-72
2022/01/28 02:53:51;;;;;;;39.17;4.93;;;;;;;;;;6215074;23;20100;-72
2022/01/28 02:56:23;;;;;;;24.30;2.88;;;;;;;;;;6224224;23;19992;-72
2022/01/28 02:58:50;;;;;;;28.67;5.45;;;;;;;;;;6223746;23;20051;-72
2022/01/28 03:01:17;;;;;;;20.27;2.75;;;;;;;;;;6212655;23;20028;-72
2022/01/28 03:03:44;;;;;;;27.23;4.43;;;;;;;;;;6222999;23;20003;-73
2022/01/28 03:06:11;;;;;;;24.42;4.53;;;;;;;;;;6223814;23;20000;-73
2022/01/28 03:08:37;;;;;;;36.25;5.07;;;;;;;;;;6223977;23;20119;-72
2022/01/28 03:14:16;;;;;;;33.10;4.22;;;;;;;;;;6194643;23;20004;-72
2022/01/28 03:19:41;;;;;;;29.52;3.65;;;;;;;;;;6223044;23;20054;-72
2022/01/28 03:22:07;;;;;;;24.92;3.25;;;;;;;;;;6212733;23;20009;-72
2022/01/28 03:24:33;;;;;;;33.05;5.38;;;;;;;;;;6223630;23;20003;-72
2022/01/28 03:27:05;;;;;;;37.80;5.28;;;;;;;;;;6223236;23;20000;-73
2022/01/28 03:29:31;;;;;;;38.25;4.35;;;;;;;;;;6223615;23;20016;-73
2022/01/28 03:31:57;;;;;;;32.97;3.85;;;;;;;;;;6211583;23;20019;-72
2022/01/28 03:34:24;;;;;;;25.55;3.55;;;;;;;;;;6212765;23;20050;-72
2022/01/28 03:36:52;;;;;;;38.80;5.28;;;;;;;;;;6212846;23;20016;-72
2022/01/28 03:39:18;;;;;;;36.40;4.15;;;;;;;;;;6211062;23;20008;-72
2022/01/28 03:41:44;;;;;;;32.17;3.60;;;;;;;;;;6224301;23;20007;-72
2022/01/28 03:44:10;;;;;;;32.75;4.63;;;;;;;;;;6222752;23;20012;-72
2022/01/28 03:46:36;;;;;;;37.63;4.60;;;;;;;;;;6223861;23;20058;-72
2022/01/28 03:49:03;;;;;;;29.05;4.03;;;;;;;;;;6211368;23;20004;-72
2022/01/28 03:51:29;;;;;;;19.42;4.05;;;;;;;;;;6223100;23;20071;-73
2022/01/28 03:53:56;;;;;;;38.83;5.57;;;;;;;;;;6211853;23;20001;-72
2022/01/28 03:56:22;;;;;;;27.92;4.22;;;;;;;;;;6222115;23;20448;-74
2022/01/28 03:58:48;;;;;;;25.65;3.95;;;;;;;;;;6223250;23;20024;-74
2022/01/28 04:01:27;;;;;;;28.75;4.22;;;;;;;;;;6223285;23;19993;-75
2022/01/28 04:11:52;;;;;;;31.55;4.88;;;;;;;;;;6221866;23;20011;-72
2022/01/28 04:19:29;;;;;;;37.80;4.20;;;;;;;;;;6223203;23;20004;-73
2022/01/28 04:21:55;;;;;;;29.55;4.68;;;;;;;;;;6223441;23;20000;-73
2022/01/28 04:24:21;;;;;;;29.90;3.97;;;;;;;;;;6222275;23;20003;-72
2022/01/28 04:26:47;;;;;;;35.15;4.57;;;;;;;;;;6211682;23;19997;-72
2022/01/28 04:29:14;;;;;;;30.42;4.45;;;;;;;;;;6223767;23;20389;-72
2022/01/28 04:31:42;;;;;;;16.95;2.67;;;;;;;;;;6211325;23;20009;-72
2022/01/28 04:34:10;;;;;;;32.35;3.35;;;;;;;;;;6223299;23;20019;-72
2022/01/28 04:36:44;;;;;;;30.48;4.40;;;;;;;;;;6211517;23;20293;-72
2022/01/28 04:39:24;;;;;;;29.05;3.80;;;;;;;;;;6221663;23;20465;-72
2022/01/28 04:42:04;;;;;;;22.83;3.42;;;;;;;;;;6223692;23;20051;-72
2022/01/28 04:44:40;;;;;;;37.53;4.78;;;;;;;;;;6210587;23;20012;-72
2022/01/28 04:47:38;;;;;;;25.55;4.15;;;;;;;;;;6223436;23;19996;-72
2022/01/28 04:50:15;;;;;;;28.95;4.63;;;;;;;;;;6212743;23;20071;-72
2022/01/28 04:55:32;;;;;;;21.88;3.78;;;;;;;;;;6222344;23;20001;-73
2022/01/28 05:25:00;;;;;;;32.85;5.85;;;;;;;;;;6223084;23;20329;-73
2022/01/28 05:27:17;;;;;;;31.30;4.63;;;;;;;;;;6211660;23;19997;-73
2022/01/28 05:29:43;;;;;;;34.90;4.90;;;;;;;;;;6222759;23;20342;-73
2022/01/28 05:32:10;;;;;;;27.38;5.18;;;;;;;;;;6223063;23;20382;-72
2022/01/28 05:34:36;;;;;;;28.65;4.32;;;;;;;;;;6222603;23;20485;-72
2022/01/28 05:37:03;;;;;;;26.80;3.63;;;;;;;;;;6222859;23;20298;-72
2022/01/28 05:39:29;;;;;;;28.35;4.63;;;;;;;;;;6222875;23;20453;-73
2022/01/28 05:41:55;;;;;;;25.00;4.60;;;;;;;;;;6223153;23;19992;-73
2022/01/28 05:44:21;;;;;;;21.00;3.60;;;;;;;;;;6222310;23;20008;-73
2022/01/28 05:46:48;;;;;;;27.38;3.70;;;;;;;;;;6210691;23;19996;-72
2022/01/28 05:49:14;;;;;;;15.73;3.60;;;;;;;;;;6223585;23;19989;-72
2022/01/28 05:51:41;;;;;;;22.40;3.80;;;;;;;;;;6221887;23;19996;-72
2022/01/28 05:54:07;;;;;;;20.33;3.83;;;;;;;;;;6223102;23;19993;-72
2022/01/28 05:56:33;;;;;;;35.28;3.80;;;;;;;;;;6225550;23;19997;-72
2022/01/28 05:58:59;;;;;;;26.65;3.95;;;;;;;;;;6187963;23;20004;-72
2022/01/28 06:01:26;;;;;;;29.48;4.95;;;;;;;;;;6224818;23;20083;-72
2022/01/28 06:03:52;;;;;;;25.40;4.50;;;;;;;;;;6223305;23;20008;-72
2022/01/28 06:06:20;;;;;;;28.95;4.15;;;;;;;;;;6223643;23;20068;-72
2022/01/28 06:08:50;;;;;;;29.33;3.88;;;;;;;;;;6224750;23;20001;-72
2022/01/28 06:11:16;;;;;;;37.60;3.20;;;;;;;;;;6224800;23;20344;-72
2022/01/28 06:13:43;;;;;;;25.27;3.45;;;;;;;;;;6213189;23;20480;-72
2022/01/28 06:16:13;;;;;;;20.45;3.00;;;;;;;;;;6224765;23;19996;-72
2022/01/28 06:18:40;;;;;;;22.92;4.40;;;;;;;;;;6223862;23;20001;-72
2022/01/28 06:21:06;;;;;;;30.63;4.63;;;;;;;;;;6213440;23;20177;-73
2022/01/28 06:23:33;;;;;;;32.50;3.70;;;;;;;;;;6223782;23;20004;-72
2022/01/28 06:25:59;;;;;;;22.40;3.33;;;;;;;;;;6225104;23;20063;-72
2022/01/28 06:28:25;;;;;;;28.00;3.53;;;;;;;;;;6187917;23;20307;-72
2022/01/28 06:30:51;;;;;;;38.75;6.78;;;;;;;;;;6223551;23;19997;-72
2022/01/28 06:33:17;;;;;;;21.13;4.80;;;;;;;;;;6224724;23;20007;-72
2022/01/28 06:35:44;;;;;;;24.40;3.13;;;;;;;;;;6224049;23;20441;-72
2022/01/28 06:38:10;;;;;;;26.23;4.38;;;;;;;;;;6224781;23;19989;-72
2022/01/28 06:40:37;;;;;;;30.40;3.70;;;;;;;;;;6224679;23;20046;-72
2022/01/28 06:43:03;;;;;;;28.35;3.80;;;;;;;;;;6211917;23;20413;-71
2022/01/28 06:45:29;;;;;;;33.42;2.90;;;;;;;;;;6222541;23;20017;-71
2022/01/28 06:47:55;;;;;;;31.05;5.35;;;;;;;;;;6222316;23;19989;-71
2022/01/28 06:50:21;;;;;;;28.05;5.38;;;;;;;;;;6223215;23;20024;-71
2022/01/28 06:52:47;;;;;;;35.92;7.90;;;;;;;;;;6211239;23;19997;-72
2022/01/28 06:55:16;;;;;;;27.20;7.55;;;;;;;;;;6223340;23;20070;-71
2022/01/28 06:57:43;;;;;;;25.65;4.43;;;;;;;;;;6223343;23;20290;-71
2022/01/28 07:00:10;;;;;;;31.00;4.32;;;;;;;;;;6210025;23;20000;-71
2022/01/28 07:02:36;;;;;;;31.27;4.00;;;;;;;;;;6223244;23;20432;-72
2022/01/28 07:05:04;;;;;;;29.92;5.13;;;;;;;;;;6225078;23;19996;-72
2022/01/28 07:07:30;;;;;;;26.67;2.75;;;;;;;;;;6221561;23;20026;-72
2022/01/28 07:09:56;;;;;;;51.45;4.72;;;;;;;;;;6222771;23;20453;-71
2022/01/28 07:12:22;;;;;;;27.88;3.67;;;;;;;;;;6224408;23;20008;-71
2022/01/28 07:14:48;;;;;;;18.85;3.33;;;;;;;;;;6223382;23;20322;-72
2022/01/28 07:17:15;;;;;;;22.77;3.92;;;;;;;;;;6224303;23;19996;-72
2022/01/28 12:26:56;;;;;;;20.98;2.60;;;;;;;;;;6210879;23;20386;-74
2022/01/28 12:29:32;;;;;;;21.95;3.70;;;;;;;;;;6222955;23;20070;-74
2022/01/28 12:31:59;;;;;;;22.75;3.72;;;;;;;;;;6210327;23;20096;-74
2022/01/28 12:34:25;;;;;;;30.42;5.13;;;;;;;;;;6221223;23;20373;-73
2022/01/28 12:36:52;;;;;;;33.30;8.32;;;;;;;;;;6222982;23;20024;-75
2022/01/28 12:39:32;;;;;;;36.85;5.40;;;;;;;;;;6184952;23;20399;-74
2022/01/28 12:42:22;;;;;;;21.88;3.55;;;;;;;;;;6221447;23;20260;-73
2022/01/28 12:44:55;;;;;;;15.60;3.55;;;;;;;;;;6222282;23;20004;-73
2022/01/28 12:47:22;;;;;;;28.15;3.38;;;;;;;;;;6220723;23;20005;-72
2022/01/28 12:49:53;;;;;;;24.58;4.05;;;;;;;;;;6222163;23;20001;-74
2022/01/28 12:52:20;;;;;;;33.40;5.30;;;;;;;;;;6221849;23;20115;-74
2022/01/28 12:54:46;;;;;;;20.60;2.97;;;;;;;;;;6208314;23;20008;-74
2022/01/28 12:57:14;;;;;;;22.90;4.18;;;;;;;;;;6209921;23;20015;-74
2022/01/28 12:59:42;;;;;;;26.65;3.55;;;;;;;;;;6220827;23;19992;-74
2022/01/28 13:02:08;;;;;;;23.45;3.03;;;;;;;;;;6221235;23;20004;-74
2022/01/28 13:10:21;;;;;;;19.92;3.20;;;;;;;;;;6221502;23;20078;-75
2022/01/28 13:12:48;;;;;;;19.60;3.22;;;;;;;;;;6222100;23;20545;-74
2022/01/28 13:15:15;;;;;;;27.98;3.33;;;;;;;;;;6221793;23;20023;-75
2022/01/28 13:17:42;;;;;;;21.27;4.00;;;;;;;;;;6222822;23;20082;-74
2022/01/28 13:20:10;;;;;;;26.75;3.85;;;;;;;;;;6221332;23;20004;-74
2022/01/28 13:22:37;;;;;;;18.83;3.60;;;;;;;;;;6221199;23;20008;-74
2022/01/28 13:25:15;;;;;;;23.13;4.18;;;;;;;;;;6221905;23;20469;-74
2022/01/28 13:27:42;;;;;;;33.30;4.00;;;;;;;;;;6221850;23;20424;-73
2022/01/28 13:30:19;;;;;;;25.02;3.30;;;;;;;;;;6221589;23;19997;-73
2022/01/28 13:32:47;;;;;;;24.25;2.55;;;;;;;;;;6222271;23;20011;-73
2022/01/28 13:35:16;;;;;;;16.70;2.58;;;;;;;;;;6210677;23;20055;-73
2022/01/28 13:37:42;;;;;;;22.02;3.65;;;;;;;;;;6222126;23;20314;-74
2022/01/28 13:40:08;;;;;;;19.33;2.65;;;;;;;;;;6222626;23;20003;-74
2022/01/28 13:42:35;;;;;;;21.88;3.65;;;;;;;;;;6221248;23;20000;-74
2022/01/28 13:45:05;;;;;;;15.85;3.33;;;;;;;;;;6221755;23;20008;-74
2022/01/28 13:47:49;;;;;;;18.52;4.32;;;;;;;;;;6221936;23;20000;-73
2022/01/28 13:50:25;;;;;;;27.48;3.22;;;;;;;;;;6221699;23;20036;-74
2022/01/28 13:53:07;;;;;;;18.35;4.15;;;;;;;;;;6209603;23;20360;-74
2022/01/28 13:55:35;;;;;;;19.60;2.60;;;;;;;;;;6221872;23;20337;-74
2022/01/28 13:58:05;;;;;;;25.33;3.65;;;;;;;;;;6221491;23;20052;-74
2022/01/28 14:00:38;;;;;;;15.00;2.72;;;;;;;;;;6221064;23;20020;-74
2022/01/28 14:03:04;;;;;;;16.02;2.20;;;;;;;;;;6220763;23;20004;-74
2022/01/28 14:05:49;;;;;;;18.13;3.47;;;;;;;;;;6210435;23;20322;-74
2022/01/28 14:08:15;;;;;;;19.85;2.95;;;;;;;;;;6221629;23;20392;-74
2022/01/28 14:10:41;;;;;;;22.48;3.40;;;;;;;;;;6222659;23;20008;-74
2022/01/28 14:13:21;;;;;;;17.75;2.75;;;;;;;;;;6221508;23;20008;-74
2022/01/28 14:16:04;;;;;;;21.00;3.90;;;;;;;;;;6221621;23;20012;-73
2022/01/28 14:18:30;;;;;;;21.70;4.47;;;;;;;;;;6209983;23;20015;-73
2022/01/28 14:20:57;;;;;;;21.45;3.00;;;;;;;;;;6220700;23;20020;-73
2022/01/28 14:23:23;;;;;;;17.60;3.25;;;;;;;;;;6221733;23;20028;-74
2022/01/28 14:25:49;;;;;;;19.98;2.40;;;;;;;;;;6209120;23;20017;-74
2022/01/28 14:30:54;;;;;;;25.35;3.63;;;;;;;;;;6223821;23;20004;-73
2022/01/28 14:33:20;;;;;;;18.10;2.67;;;;;;;;;;6212159;23;20147;-74
2022/01/28 14:35:46;;;;;;;26.50;4.00;;;;;;;;;;6222896;23;20024;-73
2022/01/28 14:38:12;;;;;;;17.60;2.63;;;;;;;;;;6222231;23;19997;-73
2022/01/28 14:40:38;;;;;;;17.88;3.30;;;;;;;;;;6221748;23;19997;-73
2022/01/28 14:43:04;;;;;;;18.67;2.72;;;;;;;;;;6222677;23;20321;-73
2022/01/28 14:45:31;;;;;;;11.88;3.42;;;;;;;;;;6212335;23;20322;-72
2022/01/28 14:47:57;;;;;;;14.98;3.85;;;;;;;;;;6222760;23;20075;-73
2022/01/28 14:50:23;;;;;;;24.63;3.53;;;;;;;;;;6222813;23;20000;-73
2022/01/28 14:52:49;;;;;;;18.17;3.85;;;;;;;;;;6221266;23;20094;-73
2022/01/28 14:55:15;;;;;;;20.95;4.10;;;;;;;;;;6223472;23;20078;-73
2022/01/28 14:57:41;;;;;;;27.95;4.88;;;;;;;;;;6223189;23;19996;-73
2022/01/28 15:00:08;;;;;;;25.27;3.05;;;;;;;;;;6222348;23;20572;-74
2022/01/28 15:02:34;;;;;;;20.85;4.65;;;;;;;;;;6223788;23;20004;-73
2022/01/28 15:05:01;;;;;;;31.60;9.10;;;;;;;;;;6223176;23;20080;-73
2022/01/28 15:07:31;;;;;;;11.25;2.60;;;;;;;;;;6222628;23;19993;-72
2022/01/28 15:09:59;;;;;;;18.77;5.10;;;;;;;;;;6222713;23;20035;-74
2022/01/28 15:12:25;;;;;;;18.27;4.25;;;;;;;;;;6222767;23;20008;-73
2022/01/28 15:14:51;;;;;;;17.42;2.63;;;;;;;;;;6222335;23;20004;-73
2022/01/28 15:17:17;;;;;;;24.45;6.43;;;;;;;;;;6222776;23;20500;-73
2022/01/28 15:19:44;;;;;;;34.63;6.80;;;;;;;;;;6221871;23;20001;-73
2022/01/28 15:22:10;;;;;;;30.30;11.93;;;;;;;;;;6209498;23;20005;-73
2022/01/28 15:24:36;;;;;;;21.20;4.95;;;;;;;;;;6222079;23;20012;-73
2022/01/28 15:27:03;;;;;;;16.60;3.25;;;;;;;;;;6220601;23;20001;-73
2022/01/28 15:37:09;;;;;;;21.85;2.72;;;;;;;;;;6222873;23;20011;-73
2022/01/28 15:39:35;;;;;;;13.48;3.00;;;;;;;;;;6222970;23;20023;-73
2022/01/28 15:42:06;;;;;;;19.33;3.40;;;;;;;;;;6210855;23;20051;-73
2022/01/28 15:44:32;;;;;;;17.63;2.53;;;;;;;;;;6211602;23;19997;-72
2022/01/28 15:46:58;;;;;;;12.13;2.42;;;;;;;;;;6221991;23;20004;-72
2022/01/28 15:49:24;;;;;;;15.15;3.42;;;;;;;;;;6222533;23;19996;-73
2022/01/28 15:51:51;;;;;;;13.57;3.42;;;;;;;;;;6222608;23;20000;-72
2022/01/28 15:54:17;;;;;;;24.20;2.40;;;;;;;;;;6221572;23;19996;-73
2022/01/28 15:56:44;;;;;;;13.27;2.53;;;;;;;;;;6222749;23;20464;-73
2022/01/28 15:59:10;;;;;;;15.30;2.33;;;;;;;;;;6222938;23;20066;-72
2022/01/28 16:01:36;;;;;;;18.42;3.55;;;;;;;;;;6222590;23;20000;-73
2022/01/28 16:04:02;;;;;;;14.63;1.70;;;;;;;;;;6222025;23;20000;-72
2022/01/28 16:06:30;;;;;;;15.15;2.58;;;;;;;;;;6221992;23;19997;-73
2022/01/28 16:08:58;;;;;;;19.10;3.10;;;;;;;;;;6222130;23;20414;-73
2022/01/28 16:11:34;;;;;;;8.55;1.38;;;;;;;;;;6222866;23;19993;-73
2022/01/28 16:14:18;;;;;;;18.23;2.28;;;;;;;;;;6221775;23;20005;-73
2022/01/28 16:19:30;;;;;;;19.25;3.72;;;;;;;;;;6221893;23;20031;-72
2022/01/28 16:21:56;;;;;;;13.23;4.13;;;;;;;;;;6220216;23;20031;-73
2022/01/28 16:24:23;;;;;;;11.93;2.90;;;;;;;;;;6222084;23;20068;-73
2022/01/28 16:26:49;;;;;;;23.42;5.40;;;;;;;;;;6220832;23;20024;-74
2022/01/28 16:29:15;;;;;;;12.55;3.10;;;;;;;;;;6220665;23;20003;-72
2022/01/28 16:31:41;;;;;;;21.17;3.40;;;;;;;;;;6219438;23;20070;-74
2022/01/28 16:34:11;;;;;;;14.63;2.30;;;;;;;;;;6217140;23;20023;-73
2022/01/28 16:36:37;;;;;;;12.85;2.15;;;;;;;;;;6219955;23;20004;-73
2022/01/28 16:39:04;;;;;;;21.02;3.40;;;;;;;;;;6221599;23;20045;-73
2022/01/28 16:41:39;;;;;;;19.20;2.35;;;;;;;;;;6220758;23;19996;-73
2022/01/28 16:44:09;;;;;;;15.43;2.42;;;;;;;;;;6221855;23;20005;-73
2022/01/28 16:46:35;;;;;;;14.70;2.85;;;;;;;;;;6186318;23;20087;-73
2022/01/28 16:49:02;;;;;;;15.43;2.10;;;;;;;;;;6220604;23;20007;-73
2022/01/28 16:51:28;;;;;;;9.57;2.20;;;;;;;;;;6210893;23;20411;-73
2022/01/28 16:53:54;;;;;;;11.88;2.17;;;;;;;;;;6222235;23;20004;-73
2022/01/28 16:56:21;;;;;;;13.85;2.60;;;;;;;;;;6222250;23;20020;-73
2022/01/28 16:58:49;;;;;;;18.05;2.60;;;;;;;;;;6224313;23;20075;-72
2022/01/28 17:01:16;;;;;;;19.23;2.55;;;;;;;;;;6230582;23;20005;-72
2022/01/28 17:03:42;;;;;;;12.15;1.90;;;;;;;;;;6240830;23;19997;-73
2022/01/28 17:06:10;;;;;;;16.15;3.05;;;;;;;;;;6219200;23;20004;-72
2022/01/28 17:08:36;;;;;;;23.65;3.28;;;;;;;;;;6211652;23;20051;-73
2022/01/28 17:13:44;;;;;;;14.15;3.28;;;;;;;;;;6222336;23;20329;-73
2022/01/28 17:16:10;;;;;;;23.17;4.50;;;;;;;;;;6222269;23;20020;-73
2022/01/28 17:18:38;;;;;;;14.02;3.78;;;;;;;;;;6221957;23;20339;-74
2022/01/28 17:21:04;;;;;;;14.00;4.50;;;;;;;;;;6220368;23;20011;-72
2022/01/28 17:23:31;;;;;;;25.10;3.45;;;;;;;;;;6210112;23;20001;-73
2022/01/28 17:25:57;;;;;;;10.82;3.13;;;;;;;;;;6222052;23;20456;-73
2022/01/28 17:28:24;;;;;;;44.30;18.85;;;;;;;;;;6220585;23;20011;-73
2022/01/28 17:30:50;;;;;;;21.02;4.55;;;;;;;;;;6209462;23;20330;-73
2022/01/28 17:33:16;;;;;;;14.93;3.70;;;;;;;;;;6221132;23;20028;-72
2022/01/28 17:35:42;;;;;;;15.25;3.95;;;;;;;;;;6219896;23;20062;-72
2022/01/28 17:38:09;;;;;;;17.83;3.17;;;;;;;;;;6221386;23;20004;-73
2022/01/28 17:40:35;;;;;;;18.95;6.18;;;;;;;;;;6220766;23;20430;-73
2022/01/28 17:43:02;;;;;;;21.73;4.38;;;;;;;;;;6221064;23;20393;-73
2022/01/28 17:45:28;;;;;;;12.95;2.40;;;;;;;;;;6221237;23;20096;-73
2022/01/28 17:47:56;;;;;;;12.50;2.20;;;;;;;;;;6221308;23;20001;-72
2022/01/28 17:50:22;;;;;;;17.58;4.45;;;;;;;;;;6221663;23;20028;-72
2022/01/28 17:52:48;;;;;;;13.38;3.97;;;;;;;;;;6221700;23;20075;-72
2022/01/28 17:55:14;;;;;;;12.35;2.90;;;;;;;;;;6220966;23;20071;-73
2022/01/28 17:57:40;;;;;;;16.05;4.05;;;;;;;;;;6220672;23;20031;-73
2022/01/28 18:00:07;;;;;;;8.77;2.20;;;;;;;;;;6209985;23;20008;-72
2022/01/28 18:02:33;;;;;;;15.48;3.08;;;;;;;;;;6223185;23;20005;-73
2022/01/28 18:04:59;;;;;;;10.77;2.90;;;;;;;;;;6222823;23;20047;-73
2022/01/28 18:07:25;;;;;;;25.30;6.53;;;;;;;;;;6222639;23;20028;-73
2022/01/28 18:09:51;;;;;;;16.88;3.10;;;;;;;;;;6223091;23;20001;-73
2022/01/28 18:12:17;;;;;;;16.42;4.07;;;;;;;;;;6222362;23;20023;-73
2022/01/28 18:14:44;;;;;;;20.85;4.40;;;;;;;;;;6223071;23;20499;-73
2022/01/28 18:17:11;;;;;;;21.35;4.13;;;;;;;;;;6223633;23;20005;-73
2022/01/28 18:19:37;;;;;;;10.95;3.90;;;;;;;;;;6222618;23;19996;-72
2022/01/28 18:22:03;;;;;;;23.08;4.07;;;;;;;;;;6221941;23;20048;-72
2022/01/28 18:24:30;;;;;;;18.55;5.75;;;;;;;;;;6211012;23;20493;-73
2022/01/28 18:26:56;;;;;;;15.73;5.35;;;;;;;;;;6212826;23;20001;-72
2022/01/28 18:29:25;;;;;;;18.92;5.88;;;;;;;;;;6223363;23;19996;-73
2022/01/28 18:31:53;;;;;;;20.67;6.43;;;;;;;;;;6223707;23;20330;-73
2022/01/28 18:34:19;;;;;;;22.52;6.80;;;;;;;;;;6223742;23;20004;-73
2022/01/28 18:36:45;;;;;;;26.17;7.18;;;;;;;;;;6223261;23;19992;-73
2022/01/28 18:39:11;;;;;;;26.88;9.57;;;;;;;;;;6223102;23;19997;-73
2022/01/28 18:41:39;;;;;;;20.65;7.88;;;;;;;;;;6222906;23;20023;-73
2022/01/28 18:44:15;;;;;;;23.33;9.80;;;;;;;;;;6223904;23;20001;-73
2022/01/28 18:46:52;;;;;;;29.85;10.75;;;;;;;;;;6223424;23;20028;-73
2022/01/28 18:49:18;;;;;;;21.02;9.40;;;;;;;;;;6211848;23;20430;-72
2022/01/28 18:51:44;;;;;;;24.63;10.38;;;;;;;;;;6224150;23;20004;-73
2022/01/28 18:54:10;;;;;;;25.20;9.57;;;;;;;;;;6223507;23;20036;-73
2022/01/28 18:56:36;;;;;;;26.15;9.02;;;;;;;;;;6223657;23;19993;-73
2022/01/28 18:59:02;;;;;;;25.40;10.55;;;;;;;;;;6224016;23;20481;-73
2022/01/28 19:01:29;;;;;;;21.52;11.02;;;;;;;;;;6222716;23;19992;-73
2022/01/28 19:03:55;;;;;;;19.50;10.60;;;;;;;;;;6223829;23;20008;-74
2022/01/28 19:06:21;;;;;;;29.50;10.88;;;;;;;;;;6223337;23;19997;-73
2022/01/28 19:08:47;;;;;;;21.08;9.57;;;;;;;;;;6223396;23;20001;-73
2022/01/28 19:11:13;;;;;;;22.45;10.60;;;;;;;;;;6223533;23;20000;-73
2022/01/28 19:13:39;;;;;;;28.13;12.15;;;;;;;;;;6211403;23;20009;-73
2022/01/28 19:16:05;;;;;;;24.67;10.05;;;;;;;;;;6223737;23;20003;-73
2022/01/28 19:18:32;;;;;;;35.67;13.48;;;;;;;;;;6223676;23;20000;-73
2022/01/28 19:20:58;;;;;;;32.80;12.23;;;;;;;;;;6222669;23;20422;-73
2022/01/28 19:23:25;;;;;;;30.02;14.15;;;;;;;;;;6223181;23;20400;-74
2022/01/28 19:25:51;;;;;;;37.47;15.13;;;;;;;;;;6223497;23;20017;-73
2022/01/28 19:28:17;;;;;;;23.80;12.30;;;;;;;;;;6222769;23;20001;-74
2022/01/28 19:30:47;;;;;;;20.80;12.18;;;;;;;;;;6223538;23;20475;-73
2022/01/28 19:33:15;;;;;;;34.47;14.05;;;;;;;;;;6222451;23;20087;-73
2022/01/28 19:35:41;;;;;;;30.55;14.60;;;;;;;;;;6223011;23;20000;-73
2022/01/28 19:38:07;;;;;;;33.03;14.63;;;;;;;;;;6223735;23;20489;-73
2022/01/28 19:40:33;;;;;;;36.22;13.98;;;;;;;;;;6222610;23;20421;-73
2022/01/28 19:42:59;;;;;;;27.58;12.73;;;;;;;;;;6223439;23;20051;-73
2022/01/28 19:45:26;;;;;;;32.25;14.77;;;;;;;;;;6222177;23;20004;-73
2022/01/28 19:47:52;;;;;;;30.90;13.60;;;;;;;;;;6223083;23;20079;-73
2022/01/28 19:50:20;;;;;;;39.13;14.75;;;;;;;;;;6222885;23;20074;-73
2022/01/28 19:52:46;;;;;;;33.15;14.45;;;;;;;;;;6211196;23;20036;-73
2022/01/28 19:55:12;;;;;;;28.45;12.73;;;;;;;;;;6210940;23;20075;-73
2022/01/28 19:57:39;;;;;;;27.63;14.02;;;;;;;;;;6223335;23;19997;-73
2022/01/28 20:00:06;;;;;;;37.95;15.43;;;;;;;;;;6222199;23;20003;-72
2022/01/28 20:02:32;;;;;;;26.98;13.23;;;;;;;;;;6222980;23;20001;-73
2022/01/28 20:04:58;;;;;;;31.65;13.80;;;;;;;;;;6222880;23;20001;-73
2022/01/28 20:07:24;;;;;;;39.78;15.00;;;;;;;;;;6221718;23;20008;-73
2022/01/28 20:09:51;;;;;;;27.10;14.57;;;;;;;;;;6222932;23;20083;-73
2022/01/28 20:12:17;;;;;;;37.05;13.52;;;;;;;;;;6220789;23;20442;-73
2022/01/28 20:14:49;;;;;;;36.17;13.68;;;;;;;;;;6211199;23;20001;-73
2022/01/28 20:17:15;;;;;;;31.40;15.32;;;;;;;;;;6223020;23;20103;-73
2022/01/28 20:19:42;;;;;;;41.72;15.65;;;;;;;;;;6210560;23;20116;-73
2022/01/28 20:22:08;;;;;;;30.65;14.45;;;;;;;;;;6222127;23;19996;-73
2022/01/28 20:24:34;;;;;;;44.45;15.15;;;;;;;;;;6222158;23;20063;-73
2022/01/28 20:27:00;;;;;;;37.80;14.13;;;;;;;;;;6210768;23;20008;-73
2022/01/28 20:29:26;;;;;;;33.17;13.98;;;;;;;;;;6222155;23;20008;-73
2022/01/28 20:31:52;;;;;;;28.90;12.90;;;;;;;;;;6222422;23;20016;-73
2022/01/28 20:34:19;;;;;;;31.25;13.43;;;;;;;;;;6222751;23;20051;-73
2022/01/28 20:36:45;;;;;;;34.22;14.90;;;;;;;;;;6223139;23;20448;-73
2022/01/28 20:39:12;;;;;;;31.08;13.18;;;;;;;;;;6221185;23;20314;-73
2022/01/28 20:41:39;;;;;;;36.40;13.38;;;;;;;;;;6222572;23;20011;-73
2022/01/28 20:44:05;;;;;;;36.38;14.20;;;;;;;;;;6222378;23;20008;-73
2022/01/28 20:46:31;;;;;;;40.55;13.40;;;;;;;;;;6222008;23;20418;-73
2022/01/28 20:48:57;;;;;;;36.75;13.43;;;;;;;;;;6222938;23;20008;-73
2022/01/28 20:51:23;;;;;;;32.05;13.43;;;;;;;;;;6221948;23;20003;-72
2022/01/28 20:53:49;;;;;;;30.95;12.65;;;;;;;;;;6222708;23;20032;-73
2022/01/28 20:56:15;;;;;;;37.33;13.18;;;;;;;;;;6222719;23;20004;-73
2022/01/28 20:58:41;;;;;;;39.20;12.73;;;;;;;;;;6222175;23;19997;-73
2022/01/28 21:01:09;;;;;;;44.28;13.23;;;;;;;;;;6222411;23;19996;-73
2022/01/28 21:03:35;;;;;;;40.22;13.52;;;;;;;;;;6222231;23;20399;-73
2022/01/28 21:06:01;;;;;;;30.17;12.32;;;;;;;;;;6221963;23;20363;-73
2022/01/28 21:08:28;;;;;;;31.85;12.73;;;;;;;;;;6222535;23;19997;-73
2022/01/28 21:10:54;;;;;;;37.92;13.02;;;;;;;;;;6222575;23;20043;-73
2022/01/28 21:13:20;;;;;;;40.10;13.65;;;;;;;;;;6222007;23;20004;-73
2022/01/28 21:15:46;;;;;;;35.85;13.20;;;;;;;;;;6221893;23;19993;-73
2022/01/28 21:18:13;;;;;;;29.52;11.75;;;;;;;;;;6222077;23;20123;-73
2022/01/28 21:20:39;;;;;;;31.52;12.73;;;;;;;;;;6222318;23;20452;-73
2022/01/28 21:23:05;;;;;;;30.75;12.07;;;;;;;;;;6221834;23;20047;-73
2022/01/28 21:25:31;;;;;;;35.03;12.00;;;;;;;;;;6221531;23;20043;-73
2022/01/28 21:27:58;;;;;;;39.20;12.27;;;;;;;;;;6221699;23;20495;-73
2022/01/28 21:30:24;;;;;;;32.75;12.88;;;;;;;;;;6221316;23;19996;-73
2022/01/28 21:32:50;;;;;;;32.58;11.88;;;;;;;;;;6222272;23;20009;-73
2022/01/28 21:35:16;;;;;;;40.25;12.40;;;;;;;;;;6222227;23;20051;-73
2022/01/28 21:37:42;;;;;;;33.47;12.88;;;;;;;;;;6225210;23;20028;-73
2022/01/28 21:40:09;;;;;;;30.33;11.40;;;;;;;;;;6226465;23;19997;-73
2022/01/28 21:42:36;;;;;;;34.90;13.50;;;;;;;;;;6225102;23;20460;-73
2022/01/28 21:45:03;;;;;;;29.02;12.95;;;;;;;;;;6222992;23;20051;-73
2022/01/28 21:47:29;;;;;;;30.10;11.63;;;;;;;;;;6225679;23;20020;-73
2022/01/28 21:49:55;;;;;;;36.53;13.52;;;;;;;;;;6225827;23;20001;-73
2022/01/28 21:52:21;;;;;;;31.05;11.07;;;;;;;;;;6213375;23;20307;-73
2022/01/28 21:54:49;;;;;;;37.50;10.88;;;;;;;;;;6225917;23;20008;-73
2022/01/28 21:57:16;;;;;;;33.28;11.63;;;;;;;;;;6213310;23;20072;-73
2022/01/28 21:59:42;;;;;;;43.83;11.73;;;;;;;;;;6225894;23;20102;-73
2022/01/28 22:02:08;;;;;;;36.15;10.45;;;;;;;;;;6225262;23;20387;-73